Latest Weather Observations for Broken Hill Airport

IDN60801

Issued at 5:03 am EDT Wednesday 13 November 2019 (issued every 10 minutes, with the page automatically refreshed every 10 minutes)

About weather observations | Map of weather stations | Latest weather observations for NSW | Other Formats
Station Details ID: 047048 Name: BROKEN HILL AIRPORT AWS Lat: -32.00 Lon: 141.47 Height: 281.3 m
Data from the previous 72 hours. | See also: Recent months at Broken Hill Airport

Observations are collected in the New South Wales time zone (Eastern Standard Time) which includes daylight savings in the summer period. Therefore 'Rain since 9am' totals and other values are based on the New South Wales time zone, which may differ from local time.

Date/Time
EDT
Temp
°C
App
Temp
°C
Dew
Point
°C
Rel
Hum
%
Delta-T
°C
Wind Press
QNH
hPa
Press
MSL
hPa
Rain since
9am
mm
Dir  Spd
km/h
Gust
km/h
Spd
kts
Gust
kts
13/05:00am 10.0 3.4 1.9 57 3.4 S 26 35 14 19 1020.9 1019.8 0.0
13/04:30am 10.2 3.9 1.3 54 3.8 S 24 33 13 18 1020.7 1019.6 0.0
13/04:00am 10.7 3.2 1.5 53 3.9 S 30 35 16 19 1020.7 1019.6 0.0
13/03:30am 11.2 2.8 1.7 52 4.1 S 35 44 19 24 1020.7 1019.6 0.0
13/03:00am 11.6 5.3 1.3 49 4.4 S 24 33 13 18 1020.7 1019.6 0.0
13/02:30am 12.2 4.4 1.5 48 4.6 S 32 39 17 21 1020.7 1019.6 0.0
13/02:00am 12.6 5.8 1.0 45 5.0 S 26 30 14 16 1020.5 1019.4 0.0
13/01:30am 13.1 5.9 0.8 43 5.3 S 28 35 15 19 1020.7 1019.6 0.0
13/01:00am 13.6 6.3 0.3 40 5.6 S 28 37 15 20 1020.6 1019.5 0.0
13/12:30am 14.1 6.6 -1.1 35 6.3 S 28 37 15 20 1020.7 1019.6 0.0
13/12:00am 14.8 6.6 -1.3 33 6.7 S 32 41 17 22 1020.5 1019.4 0.0
 
Date/Time
EDT
Temp
°C
App
Temp
°C
Dew
Point
°C
Rel
Hum
%
Delta-T
°C
Wind Press
QNH
hPa
Press
MSL
hPa
Rain since
9am
mm
Dir  Spd
km/h
Gust
km/h
Spd
kts
Gust
kts
12/11:30pm 15.8 7.5 -1.7 30 7.3 SSW 32 39 17 21 1020.1 1019.0 0.0
12/11:00pm 16.4 8.0 -2.1 28 7.7 SW 32 39 17 21 1019.8 1018.7 0.0
12/10:30pm 16.9 8.5 -2.2 27 8.0 SW 32 39 17 21 1019.4 1018.3 0.0
12/10:00pm 17.5 8.9 -2.2 26 8.2 SW 33 43 18 23 1018.7 1017.6 0.0
12/09:30pm 18.2 9.6 -2.7 24 8.7 SW 33 44 18 24 1018.2 1017.1 0.0
12/09:00pm 18.9 9.8 -3.9 21 9.3 SW 35 44 19 24 1017.6 1016.5 0.0
12/08:30pm 19.7 11.0 -3.2 21 9.6 SW 33 44 18 24 1017.0 1015.9 0.0
12/08:00pm 20.4 10.9 -4.0 19 10.1 SW 37 46 20 25 1016.4 1015.3 0.0
12/07:30pm 21.4 12.4 -3.1 19 10.5 SW 35 48 19 26 1016.1 1015.0 0.0
12/07:00pm 22.2 12.3 -4.0 17 11.1 SW 39 50 21 27 1015.7 1014.5 0.0
12/06:30pm 22.5 12.7 -6.3 14 11.7 SW 37 50 20 27 1015.1 1014.0 0.0
12/06:00pm 23.2 13.1 -5.7 14 11.9 SSW 39 52 21 28 1014.8 1013.7 0.0
12/05:47pm 23.1 14.3 -4.1 16 11.6 SW 33 52 18 28 1014.8 1013.7 0.0
12/05:30pm 23.3 13.8 -3.9 16 11.6 SSW 37 54 20 29 1014.5 1013.4 0.0
12/05:00pm 23.4 13.6 -3.0 17 11.5 SW 39 52 21 28 1014.4 1013.3 0.0
12/04:30pm 23.5 14.4 -0.7 20 11.0 SW 37 52 20 28 1014.4 1013.3 0.0
12/04:18pm 23.8 15.4 -1.2 19 11.3 SSW 33 54 18 29 1014.2 1013.1 0.0
12/04:00pm 23.4 15.1 -0.1 21 10.8 SSW 33 46 18 25 1014.5 1013.4 0.0
12/03:53pm 22.8 14.5 0.0 22 10.5 SW 33 52 18 28 1014.4 1013.3 0.0
12/03:30pm 23.0 14.9 0.8 23 10.4 SSW 33 46 18 25 1014.6 1013.5 0.0
12/03:02pm 22.8 14.8 0.6 23 10.3 SSW 32 56 17 30 1014.7 1013.6 0.0
12/03:00pm 23.0 15.1 0.8 23 10.4 SSW 32 46 17 25 1014.7 1013.6 0.0
12/02:30pm 22.2 13.8 1.3 25 9.8 SSW 35 54 19 29 1015.0 1013.9 0.0
12/02:05pm 21.8 13.9 2.0 27 9.4 SSW 33 57 18 31 1014.8 1013.7 0.0
12/02:00pm 21.4 13.7 2.2 28 9.1 SSW 32 44 17 24 1015.0 1013.9 0.0
12/01:40pm 20.9 12.6 2.2 29 8.8 SSW 35 54 19 29 1014.9 1013.8 0.0
12/01:30pm 21.0 12.6 1.8 28 9.0 SW 35 50 19 27 1015.0 1013.9 0.0
12/01:00pm 20.6 12.3 2.4 30 8.6 SSW 35 57 19 31 1014.9 1013.8 0.0
12/12:46pm 20.6 12.3 2.4 30 8.6 SSW 35 56 19 30 1014.9 1013.8 0.0
12/12:30pm 19.6 11.4 2.5 32 8.0 SSW 35 44 19 24 1015.0 1013.9 0.0
12/12:00pm 20.2 12.1 3.0 32 8.2 SSW 35 50 19 27 1014.7 1013.6 0.0
12/11:30am 19.1 10.7 3.7 36 7.4 SSW 37 54 20 29 1014.5 1013.4 0.0
12/11:00am 18.4 9.9 5.3 42 6.4 S 39 52 21 28 1014.3 1013.2 0.0
12/10:30am 17.6 8.5 5.9 46 5.8 SSW 43 54 23 29 1014.0 1012.9 0.0
12/10:00am 17.7 9.4 7.7 52 5.1 SSW 41 48 22 26 1014.0 1012.9 0.0
12/09:30am 17.3 8.8 8.4 56 4.6 SSW 43 52 23 28 1013.5 1012.4 0.0
12/09:00am 17.2 8.8 9.1 59 4.3 SSW 43 50 23 27 1013.2 1012.1 0.0
12/08:30am 16.6 10.0 10.0 65 3.5 SSW 35 44 19 24 1012.8 1011.6 0.0
12/08:00am 16.5 9.1 9.9 65 3.5 SSW 39 48 21 26 1012.5 1011.3 0.0
12/07:30am 16.9 9.1 9.6 62 3.9 SW 41 48 22 26 1011.8 1010.6 0.0
12/07:00am 17.5 10.9 8.4 55 4.7 SW 33 44 18 24 1011.0 1009.9 0.0
12/06:30am 18.6 12.9 4.8 40 6.7 SW 24 30 13 16 1010.4 1009.3 0.0
12/06:00am 18.7 12.9 -8.4 15 10.1 W 15 19 8 10 1010.1 1009.0 0.0
12/05:30am 20.2 14.0 -9.1 13 11.0 WNW 17 24 9 13 1009.6 1008.4 0.0
12/05:00am 22.8 15.2 -9.2 11 12.3 WNW 24 33 13 18 1009.2 1008.0 0.0
12/04:30am 24.6 17.4 -9.0 10 13.2 NNW 22 32 12 17 1007.9 1006.8 0.0
12/04:00am 25.4 17.5 -8.4 10 13.6 NNW 26 43 14 23 1007.8 1006.7 0.0
12/03:30am 25.5 17.6 -8.3 10 13.6 NNW 26 37 14 20 1008.1 1006.9 0.0
12/03:00am 25.8 17.6 -8.1 10 13.7 NNW 28 41 15 22 1007.9 1006.8 0.0
12/02:30am 26.4 17.7 -9.0 9 14.2 NNW 30 44 16 24 1008.2 1007.0 0.0
12/02:00am 26.6 17.9 -8.8 9 14.3 NNW 30 43 16 23 1008.5 1007.3 0.0
12/01:30am 26.8 18.5 -8.7 9 14.3 NNW 28 39 15 21 1008.6 1007.4 0.0
12/01:00am 26.7 19.2 -8.8 9 14.3 NNW 24 35 13 19 1009.5 1008.3 0.0
12/12:30am 26.8 19.4 -7.3 10 14.2 NNW 24 33 13 18 1009.6 1008.4 0.0
12/12:00am 26.9 19.5 -7.2 10 14.2 N 24 39 13 21 1009.7 1008.5 0.0
 
Date/Time
EDT
Temp
°C
App
Temp
°C
Dew
Point
°C
Rel
Hum
%
Delta-T
°C
Wind Press
QNH
hPa
Press
MSL
hPa
Rain since
9am
mm
Dir  Spd
km/h
Gust
km/h
Spd
kts
Gust
kts
11/11:30pm 26.9 20.3 -7.2 10 14.2 N 20 30 11 16 1009.9 1008.8 0.0
11/11:00pm 27.1 20.5 -7.1 10 14.3 N 20 32 11 17 1010.0 1008.9 0.0
11/10:30pm 27.3 20.7 -6.9 10 14.3 N 20 30 11 16 1010.1 1009.0 0.0
11/10:00pm 27.0 21.3 -7.2 10 14.2 N 15 20 8 11 1010.0 1008.9 0.0
11/09:30pm 27.6 21.6 -6.7 10 14.5 N 17 24 9 13 1010.0 1008.9 0.0
11/09:00pm 28.1 22.1 -6.3 10 14.7 NNW 17 24 9 13 1010.2 1009.1 0.0
11/08:30pm 28.7 22.8 -5.9 10 14.9 NNW 17 28 9 15 1010.1 1009.0 0.0
11/08:00pm 29.4 22.8 -6.7 9 15.5 NNW 20 33 11 18 1010.1 1009.0 0.0
11/07:30pm 30.0 22.7 -6.3 9 15.7 NNW 24 39 13 21 1010.2 1009.1 0.0
11/07:00pm 30.5 22.5 -5.9 9 16.0 NNW 28 37 15 20 1010.0 1008.9 0.0
11/06:30pm 31.0 23.8 -5.5 9 16.2 NNW 24 41 13 22 1010.1 1009.0 0.0
11/06:00pm 31.4 23.5 -5.2 9 16.4 NW 28 39 15 21 1010.1 1009.0 0.0
11/05:30pm 31.1 23.4 -7.0 8 16.5 NNW 26 43 14 23 1010.2 1009.1 0.0
11/05:00pm 31.7 24.5 -5.0 9 16.5 NNW 24 33 13 18 1010.5 1009.4 0.0
11/04:30pm 31.4 24.0 -3.8 10 16.1 NNW 26 41 14 22 1010.7 1009.6 0.0
11/04:00pm 31.0 23.2 -4.1 10 16.0 NNW 28 41 15 22 1011.2 1010.1 0.0
11/03:30pm 31.2 24.1 -4.0 10 16.1 NNW 24 41 13 22 1011.8 1010.6 0.0
11/03:00pm 29.9 22.4 -5.0 10 15.5 NNW 26 37 14 20 1012.5 1011.3 0.0
11/02:30pm 30.0 22.8 -4.9 10 15.5 NNW 24 35 13 19 1012.9 1011.7 0.0
11/02:00pm 29.9 22.7 -5.0 10 15.5 NNW 24 35 13 19 1013.3 1012.2 0.0
11/01:30pm 29.1 22.4 -4.3 11 14.9 NNW 22 33 12 18 1013.9 1012.8 0.0
11/01:00pm 28.8 21.3 -4.6 11 14.8 NNW 26 37 14 20 1014.4 1013.3 0.0
11/12:30pm 27.9 20.7 -5.2 11 14.4 N 24 43 13 23 1014.8 1013.7 0.0
11/12:00pm 27.9 21.6 -4.1 12 14.2 NNW 20 39 11 21 1015.3 1014.2 0.0
11/11:30am 26.8 19.3 -4.9 12 13.7 NNW 26 35 14 19 1015.6 1014.4 0.0
11/11:00am 26.3 19.1 -5.3 12 13.5 NNW 24 39 13 21 1016.0 1014.8 0.0
11/10:30am 25.2 18.0 -5.1 13 12.9 NNW 24 33 13 18 1016.2 1015.1 0.0
11/10:00am 24.7 17.6 -4.6 14 12.5 NNW 24 35 13 19 1016.5 1015.4 0.0
11/09:30am 24.2 17.5 -4.0 15 12.1 N 22 32 12 17 1016.6 1015.5 0.0
11/09:00am 22.7 16.1 -3.6 17 11.2 N 22 32 12 17 1016.5 1015.4 0.0
11/08:30am 21.4 15.2 -3.1 19 10.5 N 20 28 11 15 1016.4 1015.3 0.0
11/08:00am 19.8 13.9 -2.5 22 9.5 NNE 19 24 10 13 1016.3 1015.2 0.0
11/07:30am 18.2 13.0 -2.7 24 8.7 NNE 15 19 8 10 1016.3 1015.2 0.0
11/07:00am 16.6 11.4 -2.5 27 7.9 NNE 15 17 8 9 1016.0 1014.8 0.0
11/06:30am 16.5 11.3 -2.5 27 7.8 NNE 15 17 8 9 1015.8 1014.6 0.0
11/06:00am 16.5 11.3 -3.0 26 8.0 NNE 15 19 8 10 1015.6 1014.4 0.0
11/05:30am 16.6 11.4 -3.0 26 8.0 NNE 15 17 8 9 1015.5 1014.3 0.0
11/05:00am 16.5 11.3 -3.0 26 8.0 NNE 15 17 8 9 1015.5 1014.3 0.0
11/04:30am 16.9 11.6 -3.2 25 8.2 NNE 15 17 8 9 1015.5 1014.3 0.0
11/04:00am 16.7 11.8 -3.4 25 8.1 N 13 15 7 8 1015.5 1014.3 0.0
11/03:30am 15.2 10.7 -3.2 28 7.4 NNE 11 11 6 6 1015.6 1014.4 0.0
11/03:00am 14.4 9.8 -4.3 27 7.3 NE 11 11 6 6 1015.8 1014.6 0.0
11/02:30am 18.1 13.3 -2.8 24 8.7 NNE 13 15 7 8 1016.0 1014.8 0.0
11/02:00am 17.9 13.0 -3.5 23 8.8 NNE 13 17 7 9 1016.3 1015.2 0.0
11/01:30am 14.5 10.2 -4.7 26 7.4 NNE 9 11 5 6 1016.5 1015.4 0.0
11/01:00am 18.9 13.9 -3.9 21 9.3 NNE 13 15 7 8 1016.7 1015.6 0.0
11/12:30am 19.1 13.8 -3.7 21 9.4 NNE 15 17 8 9 1017.1 1016.0 0.0
11/12:00am 19.3 14.4 -3.5 21 9.4 NNE 13 15 7 8 1017.2 1016.1 0.0
 
Date/Time
EDT
Temp
°C
App
Temp
°C
Dew
Point
°C
Rel
Hum
%
Delta-T
°C
Wind Press
QNH
hPa
Press
MSL
hPa
Rain since
9am
mm
Dir  Spd
km/h
Gust
km/h
Spd
kts
Gust
kts
10/11:30pm 19.3 14.8 -3.5 21 9.5 NNE 11 15 6 8 1017.3 1016.2 0.0
10/11:00pm 19.7 15.9 -3.9 20 9.7 ENE 7 9 4 5 1017.2 1016.1 0.0
10/10:30pm 20.3 16.5 -3.4 20 10.0 ENE 7 9 4 5 1017.1 1016.0 0.0
10/10:00pm 19.9 15.6 -4.4 19 9.9 ESE 9 11 5 6 1017.0 1015.9 0.0
10/09:30pm 20.3 16.0 -4.8 18 10.2 SE 9 11 5 6 1016.8 1015.7 0.0
10/09:00pm 21.6 17.3 -4.5 17 10.8 SE 9 11 5 6 1016.6 1015.5 0.0
10/08:30pm 22.5 18.6 -4.5 16 11.3 S 7 11 4 6 1016.5 1015.4 0.0
10/08:00pm 24.1 19.8 -5.0 14 12.3 SW 9 13 5 7 1016.4 1015.3 0.0
10/07:30pm 24.9 19.4 -5.4 13 12.8 SSW 15 20 8 11 1016.2 1015.1 0.0
10/07:00pm 25.5 19.7 -4.9 13 13.0 SW 17 22 9 12 1016.3 1015.2 0.0
10/06:30pm 25.5 20.1 -4.9 13 13.0 WSW 15 22 8 12 1016.3 1015.2 0.0
10/06:00pm 25.6 19.5 -3.8 14 12.8 SSW 19 26 10 14 1016.4 1015.3 0.0
10/05:30pm 25.9 21.7 -3.6 14 13.0 SW 9 22 5 12 1016.5 1015.4 0.0
10/05:00pm 25.1 19.3 -4.2 14 12.6 WSW 17 28 9 15 1016.8 1015.7 0.0
10/04:30pm 25.0 19.6 -4.3 14 12.6 SW 15 28 8 15 1017.1 1016.0 0.0
10/04:00pm 24.7 18.7 -2.8 16 12.1 SW 19 28 10 15 1017.4 1016.3 0.0
10/03:30pm 24.5 19.0 -2.1 17 11.9 SSW 17 30 9 16 1017.9 1016.8 0.0
10/03:00pm 24.7 18.7 -1.2 18 11.8 SW 20 32 11 17 1018.6 1017.5 0.0
10/02:30pm 23.2 17.7 0.3 22 10.6 SSW 19 30 10 16 1019.1 1018.1 0.0
10/02:00pm 22.1 16.7 1.2 25 9.7 W 19 28 10 15 1019.6 1018.5 0.0
10/01:30pm 21.6 17.0 1.3 26 9.5 WSW 15 24 8 13 1020.1 1019.0 0.0
10/01:00pm 20.4 15.1 1.8 29 8.6 SW 19 30 10 16 1020.5 1019.4 0.0
10/12:30pm 20.0 16.5 3.3 33 8.0 SW 11 24 6 13 1021.0 1019.9 0.0
10/12:00pm 18.0 14.6 3.9 39 6.7 SSW 11 22 6 12 1021.3 1020.2 0.0
10/11:30am 17.5 13.5 4.8 43 6.1 SSW 15 24 8 13 1021.7 1020.6 0.0
10/11:00am 16.3 12.6 4.4 45 5.6 S 13 22 7 12 1022.0 1020.9 0.0
10/10:30am 15.1 10.7 4.8 50 4.9 S 17 24 9 13 1022.0 1020.9 0.0
10/10:00am 14.2 9.5 5.3 55 4.2 S 19 28 10 15 1022.1 1021.0 0.0
10/09:30am 13.6 8.8 5.5 58 3.8 S 20 26 11 14 1022.1 1021.0 0.0
10/09:00am 13.2 8.1 5.9 61 3.5 S 22 28 12 15 1022.1 1021.0 0.0
10/08:30am 13.0 7.1 5.7 61 3.5 S 26 32 14 17 1021.8 1020.7 0.0
10/08:00am 11.8 7.0 5.4 65 3.0 S 20 26 11 14 1021.5 1020.4 0.0
10/07:30am 11.2 6.9 5.1 66 2.8 S 17 20 9 11 1021.3 1020.2 0.0
10/07:00am 10.2 6.5 4.6 68 2.5 S 13 19 7 10 1021.0 1019.9 0.0
10/06:30am 9.2 5.3 3.6 68 2.5 S 13 15 7 8 1020.6 1019.5 0.0
10/06:00am 10.0 5.5 4.2 67 2.6 SSW 17 20 9 11 1020.2 1019.1 0.0

Other formats

Comma delimited format used in spreadsheet applications
http://www.bom.gov.au/fwo/IDN60801/IDN60801.94691.axf

JavaScript Object Notation format (JSON) in row-major order
http://www.bom.gov.au/fwo/IDN60801/IDN60801.94691.json

Data quality

Most of these data are generated automatically and are frequently updated. Quality checks on data are not normally performed. It is possible for incorrect values to appear. Refer to information at About Latest Weather Observations and please check the disclaimer before using these data.